Time;durP1;ratioP1;P1;durP2;ratioP2;P2;SDS_P1;SDS_P2;PMS_P1;PMS_P2;Temp;Humidity;BMP_temperature;BMP_pressure;BME280_temperature;BME280_humidity;BME280_pressure;Samples;Min_cycle;Max_cycle;Signal;HPM_P1;HPM_P2
2022/02/12 00:00:56;;;;;;;20.20;7.80;;;;;;;1.45;89.99;101674.66;105633;1274;22566;-62
2022/02/12 00:03:26;;;;;;;20.50;8.00;;;;;;;1.44;89.84;101678.43;105996;1273;22563;-63
2022/02/12 00:05:54;;;;;;;24.50;7.90;;;;;;;1.42;89.79;101677.70;105901;1273;24157;-63
2022/02/12 00:08:22;;;;;;;21.00;7.90;;;;;;;1.40;89.62;101674.39;105606;1273;24285;-60
2022/02/12 00:10:51;;;;;;;21.80;7.40;;;;;;;1.37;89.63;101675.94;105649;1273;22786;-60
2022/02/12 00:13:19;;;;;;;18.40;6.20;;;;;;;1.34;89.34;101679.14;105597;1273;22540;-60
2022/02/12 00:15:48;;;;;;;21.40;6.10;;;;;;;1.31;88.99;101683.60;105774;1273;22566;-62
2022/02/12 00:18:16;;;;;;;21.90;6.10;;;;;;;1.29;88.91;101684.52;105936;1274;22643;-62
2022/02/12 00:20:45;;;;;;;19.60;6.00;;;;;;;1.27;88.86;101692.91;105499;1273;24285;-61
2022/02/12 00:23:16;;;;;;;23.00;6.10;;;;;;;1.25;88.79;101692.19;105499;1273;25339;-61
2022/02/12 00:25:45;;;;;;;21.40;6.70;;;;;;;1.23;88.72;101694.61;105672;1273;22557;-61
2022/02/12 00:28:13;;;;;;;23.90;6.00;;;;;;;1.24;88.77;101698.31;105497;1273;24101;-62
2022/02/12 00:30:42;;;;;;;17.50;6.40;;;;;;;1.24;88.77;101696.59;105731;1273;22599;-61
2022/02/12 00:33:11;;;;;;;15.20;5.00;;;;;;;1.25;88.82;101702.56;105833;1273;25460;-61
2022/02/12 00:35:39;;;;;;;15.50;4.80;;;;;;;1.27;88.68;101705.58;105596;1273;22545;-62
2022/02/12 00:38:08;;;;;;;18.20;6.00;;;;;;;1.29;88.77;101714.86;105848;1273;24547;-61
2022/02/12 00:40:37;;;;;;;16.60;4.40;;;;;;;1.30;88.69;101715.52;105698;1273;22701;-61
2022/02/12 00:43:06;;;;;;;23.50;5.70;;;;;;;1.31;88.57;101721.97;105593;1273;24104;-61
2022/02/12 00:45:34;;;;;;;14.40;4.20;;;;;;;1.33;88.51;101728.42;105684;1273;24229;-63
2022/02/12 00:48:03;;;;;;;16.80;5.20;;;;;;;1.34;88.52;101732.45;105899;1273;22553;-60
2022/02/12 00:50:32;;;;;;;17.00;4.10;;;;;;;1.35;88.46;101735.11;105669;1273;22586;-61
2022/02/12 00:53:01;;;;;;;18.00;5.00;;;;;;;1.36;88.49;101739.52;105999;1273;25253;-60
2022/02/12 00:55:30;;;;;;;17.60;4.20;;;;;;;1.36;88.44;101744.10;105747;1273;22571;-63
2022/02/12 00:57:59;;;;;;;17.50;3.80;;;;;;;1.38;88.36;101748.04;105755;1273;25694;-64
2022/02/12 01:00:27;;;;;;;18.30;4.70;;;;;;;1.39;88.36;101746.63;106025;1273;26699;-61
2022/02/12 01:02:56;;;;;;;18.60;4.80;;;;;;;1.39;88.34;101749.00;105541;1273;24325;-62
2022/02/12 01:05:24;;;;;;;16.50;4.40;;;;;;;1.38;88.34;101754.48;105603;1273;25402;-61
2022/02/12 01:07:53;;;;;;;15.30;4.90;;;;;;;1.35;88.41;101761.22;105777;1274;24002;-61
2022/02/12 01:10:21;;;;;;;17.60;5.40;;;;;;;1.33;88.46;101765.60;105868;1273;25338;-61
2022/02/12 01:12:50;;;;;;;21.00;6.50;;;;;;;1.32;88.47;101771.88;105586;1274;23010;-63
2022/02/12 01:15:20;;;;;;;19.50;5.70;;;;;;;1.31;88.58;101778.00;105818;1273;22560;-61
2022/02/12 01:17:48;;;;;;;18.50;5.90;;;;;;;1.30;88.57;101776.12;105688;1273;24139;-62
2022/02/12 01:20:17;;;;;;;18.80;5.80;;;;;;;1.31;88.37;101783.75;105693;1273;23265;-62
2022/02/12 01:22:47;;;;;;;17.80;6.10;;;;;;;1.33;88.40;101786.98;105749;1273;23950;-62
2022/02/12 01:25:16;;;;;;;14.80;4.50;;;;;;;1.33;88.34;101786.13;105904;1274;22541;-62
2022/02/12 01:27:45;;;;;;;18.80;5.00;;;;;;;1.35;88.23;101790.54;106084;1273;24384;-61
2022/02/12 01:30:14;;;;;;;15.70;5.30;;;;;;;1.36;88.40;101793.23;105670;1274;23239;-63
2022/02/12 01:32:43;;;;;;;19.20;5.40;;;;;;;1.38;88.40;101796.94;106181;1273;22590;-62
2022/02/12 01:35:12;;;;;;;15.50;5.20;;;;;;;1.37;88.33;101801.25;105760;1274;22555;-61
2022/02/12 01:37:41;;;;;;;15.80;4.80;;;;;;;1.37;88.10;101807.70;105622;1274;22570;-61
2022/02/12 01:40:12;;;;;;;17.90;5.30;;;;;;;1.36;88.04;101809.66;105755;1275;22547;-63
2022/02/12 01:42:40;;;;;;;18.30;5.50;;;;;;;1.34;88.12;101817.19;105876;1274;22585;-63
2022/02/12 01:45:09;;;;;;;20.20;5.20;;;;;;;1.33;87.94;101818.36;105747;1273;25555;-61
2022/02/12 01:47:38;;;;;;;18.20;4.30;;;;;;;1.28;87.72;101823.80;105512;1273;24370;-62
2022/02/12 01:50:08;;;;;;;16.80;4.80;;;;;;;1.23;87.54;101831.77;105685;1273;24328;-61
2022/02/12 01:52:37;;;;;;;17.90;4.60;;;;;;;1.16;87.27;101833.49;105936;1273;24262;-62
2022/02/12 01:55:08;;;;;;;17.50;3.90;;;;;;;1.08;87.05;101839.38;105797;1274;24259;-62
2022/02/12 01:57:36;;;;;;;19.00;4.30;;;;;;;0.98;86.87;101844.69;105687;1274;25389;-61
2022/02/12 02:00:10;;;;;;;16.30;3.80;;;;;;;0.89;86.91;101848.27;105893;1274;24368;-60
2022/02/12 02:02:39;;;;;;;15.90;3.50;;;;;;;0.78;86.93;101847.36;105704;1273;24234;-60
2022/02/12 02:05:11;;;;;;;21.90;3.30;;;;;;;0.69;86.92;101852.58;105611;1274;22994;-61
2022/02/12 02:07:40;;;;;;;15.20;3.40;;;;;;;0.61;87.05;101857.35;105826;1273;25673;-62
2022/02/12 02:10:11;;;;;;;11.70;2.80;;;;;;;0.56;87.03;101862.62;105885;1273;24224;-62
2022/02/12 02:12:40;;;;;;;14.40;2.80;;;;;;;0.51;87.27;101863.50;106295;1273;24986;-62
2022/02/12 02:15:10;;;;;;;18.60;3.20;;;;;;;0.48;87.31;101869.48;106189;1273;22555;-62
2022/02/12 02:17:39;;;;;;;17.90;4.30;;;;;;;0.45;87.32;101870.94;106032;1273;25311;-62
2022/02/12 02:20:09;;;;;;;17.00;4.50;;;;;;;0.41;87.43;101876.23;105592;1273;22668;-62
2022/02/12 02:22:55;;;;;;;17.10;4.90;;;;;;;0.40;87.38;101883.10;105748;1273;22686;-60
2022/02/12 02:25:24;;;;;;;16.80;3.90;;;;;;;0.38;87.49;101892.20;105584;1273;22553;-60
2022/02/12 02:27:54;;;;;;;20.00;3.60;;;;;;;0.36;87.51;101893.17;105927;1273;25341;-62
2022/02/12 02:30:26;;;;;;;16.30;4.50;;;;;;;0.34;87.38;101894.88;105730;1273;27675;-62
2022/02/12 02:32:55;;;;;;;21.70;3.60;;;;;;;0.31;87.43;101895.44;105623;1273;22634;-61
2022/02/12 02:35:25;;;;;;;13.60;3.10;;;;;;;0.29;87.43;101896.28;105741;1274;25635;-61
2022/02/12 02:37:55;;;;;;;18.80;4.00;;;;;;;0.28;87.48;101899.24;105935;1273;25257;-63
2022/02/12 02:40:24;;;;;;;17.70;3.00;;;;;;;0.25;87.38;101898.66;105644;1274;24245;-61
2022/02/12 02:42:53;;;;;;;15.30;2.70;;;;;;;0.23;87.34;101901.69;105851;1273;22779;-62
2022/02/12 02:45:22;;;;;;;16.30;3.30;;;;;;;0.21;87.26;101901.95;105703;1273;26521;-61
2022/02/12 02:47:50;;;;;;;14.30;2.90;;;;;;;0.18;87.30;101905.68;105897;1273;24399;-59
2022/02/12 02:56:09;;;;;;;14.10;2.10;;;;;;;0.09;87.29;101917.15;105292;1279;22569;-63
2022/02/12 02:58:40;;;;;;;17.20;2.80;;;;;;;0.06;87.23;101923.69;105380;1279;22560;-58
2022/02/12 03:01:12;;;;;;;14.30;2.50;;;;;;;0.05;87.32;101925.16;105386;1279;24292;-61
2022/02/12 03:03:44;;;;;;;11.70;2.60;;;;;;;0.03;87.36;101926.23;105468;1279;26611;-60
2022/02/12 03:06:15;;;;;;;18.30;3.90;;;;;;;0.01;87.26;101930.04;105490;1279;22577;-63
2022/02/12 03:08:44;;;;;;;14.60;3.00;;;;;;;-0.02;87.32;101933.30;105342;1279;23273;-60
2022/02/12 03:11:14;;;;;;;17.60;3.00;;;;;;;-0.03;87.32;101933.96;105296;1279;22556;-63
2022/02/12 03:13:45;;;;;;;10.90;2.90;;;;;;;-0.05;87.35;101935.11;105491;1278;24365;-61
2022/02/12 03:16:15;;;;;;;14.00;3.10;;;;;;;-0.07;87.36;101935.87;105415;1277;26765;-61
2022/02/12 03:18:45;;;;;;;15.90;3.20;;;;;;;-0.09;87.37;101938.35;105510;1279;22617;-62
2022/02/12 03:21:15;;;;;;;17.70;2.80;;;;;;;-0.11;87.62;101941.29;105326;1278;25385;-62
2022/02/12 03:23:44;;;;;;;20.10;4.10;;;;;;;-0.13;87.61;101945.72;105364;1279;22801;-64
2022/02/12 03:26:14;;;;;;;19.30;3.90;;;;;;;-0.16;87.62;101952.96;105316;1277;25544;-62
2022/02/12 03:28:44;;;;;;;14.80;3.40;;;;;;;-0.18;87.58;101952.92;105732;1273;25520;-59
2022/02/12 03:31:14;;;;;;;14.10;2.70;;;;;;;-0.20;87.56;101956.02;105762;1273;22557;-61
2022/02/12 03:33:43;;;;;;;18.00;3.00;;;;;;;-0.22;87.68;101960.53;105725;1273;25542;-63
2022/02/12 03:36:11;;;;;;;21.20;4.00;;;;;;;-0.24;87.63;101962.92;106505;1263;22612;-59
2022/02/12 03:38:43;;;;;;;17.70;3.00;;;;;;;-0.26;87.73;101959.38;106219;1273;23889;-57
2022/02/12 03:41:11;;;;;;;16.70;3.50;;;;;;;-0.28;87.68;101959.10;106170;1273;22655;-57
2022/02/12 03:43:39;;;;;;;23.20;4.40;;;;;;;-0.29;87.70;101967.30;106278;1273;22545;-57
2022/02/12 03:46:09;;;;;;;14.40;3.00;;;;;;;-0.30;87.62;101965.79;106326;1270;22554;-57
2022/02/12 03:48:37;;;;;;;17.80;3.60;;;;;;;-0.32;87.62;101966.94;106366;1270;22502;-59
2022/02/12 03:51:06;;;;;;;15.60;4.00;;;;;;;-0.34;87.69;101966.17;106333;1271;26135;-57
2022/02/12 03:53:34;;;;;;;18.30;2.40;;;;;;;-0.37;87.60;101971.16;106365;1271;24383;-57
2022/02/12 03:56:03;;;;;;;16.90;3.20;;;;;;;-0.39;87.61;101978.34;106298;1271;22547;-63
2022/02/12 03:58:32;;;;;;;13.80;2.90;;;;;;;-0.40;87.63;101982.61;106635;1271;22550;-58
2022/02/12 04:01:00;;;;;;;19.00;2.90;;;;;;;-0.42;87.65;101985.16;107058;1273;22841;-58
2022/02/12 04:03:29;;;;;;;18.10;2.60;;;;;;;-0.43;87.56;101988.51;106267;1271;25266;-59
2022/02/12 04:05:57;;;;;;;15.70;2.90;;;;;;;-0.45;87.50;101988.96;106159;1271;24747;-57
2022/02/12 04:08:26;;;;;;;15.40;2.30;;;;;;;-0.45;87.55;101993.26;106283;1271;22656;-57
2022/02/12 04:10:54;;;;;;;20.10;2.60;;;;;;;-0.47;87.50;102000.83;106262;1270;22491;-60
2022/02/12 04:13:22;;;;;;;15.30;2.90;;;;;;;-0.49;87.41;102001.80;106345;1271;24555;-60
2022/02/12 04:15:51;;;;;;;16.70;3.00;;;;;;;-0.50;87.39;102003.66;106272;1271;22602;-56
2022/02/12 04:18:19;;;;;;;12.60;2.70;;;;;;;-0.52;87.42;102011.62;106328;1271;22552;-58
2022/02/12 04:20:48;;;;;;;11.50;2.50;;;;;;;-0.54;87.37;102010.00;106283;1271;23947;-57
2022/02/12 04:23:17;;;;;;;17.30;3.00;;;;;;;-0.57;87.38;102012.53;106340;1273;22567;-57
2022/02/12 04:25:46;;;;;;;19.60;3.10;;;;;;;-0.58;87.42;102017.52;106285;1273;24246;-57
2022/02/12 04:28:14;;;;;;;17.20;2.80;;;;;;;-0.61;87.32;102019.58;106329;1271;23218;-58
2022/02/12 04:30:43;;;;;;;12.60;2.50;;;;;;;-0.64;87.43;102017.88;106261;1270;22495;-57
2022/02/12 04:33:12;;;;;;;14.30;2.30;;;;;;;-0.66;87.24;102016.80;106433;1271;24351;-59
2022/02/12 04:35:41;;;;;;;20.00;2.80;;;;;;;-0.68;87.26;102019.83;106416;1270;24916;-55
2022/02/12 04:38:09;;;;;;;17.40;3.20;;;;;;;-0.70;87.26;102017.27;106409;1271;22494;-58
2022/02/12 04:40:38;;;;;;;14.50;3.30;;;;;;;-0.72;87.29;102018.48;106279;1270;25974;-58
2022/02/12 04:43:07;;;;;;;18.60;3.60;;;;;;;-0.73;87.17;102016.58;106324;1270;22639;-59
2022/02/12 04:45:35;;;;;;;20.20;5.20;;;;;;;-0.75;87.32;102011.20;106271;1271;22727;-60
2022/02/12 04:48:04;;;;;;;24.50;5.00;;;;;;;-0.79;87.33;102012.30;106247;1271;22560;-57
2022/02/12 04:50:33;;;;;;;22.00;5.60;;;;;;;-0.83;87.18;102013.00;106508;1270;22719;-61
2022/02/12 04:53:01;;;;;;;24.80;5.80;;;;;;;-0.86;87.25;102009.73;106405;1271;22850;-58
2022/02/12 04:55:31;;;;;;;19.20;3.80;;;;;;;-0.89;87.36;102010.06;106241;1273;22650;-59
2022/02/12 04:58:00;;;;;;;17.10;4.00;;;;;;;-0.91;87.30;102006.96;106394;1271;25393;-59
2022/02/12 05:00:28;;;;;;;15.50;3.40;;;;;;;-0.93;87.37;102010.60;106436;1271;24523;-58
2022/02/12 05:02:56;;;;;;;18.70;3.90;;;;;;;-0.95;87.41;102012.90;106218;1271;25547;-58
2022/02/12 05:05:25;;;;;;;18.20;2.80;;;;;;;-0.96;87.26;102016.25;106231;1271;22497;-57
2022/02/12 05:07:53;;;;;;;18.50;3.40;;;;;;;-0.96;87.37;102019.91;106217;1271;26803;-58
2022/02/12 05:10:22;;;;;;;17.80;3.00;;;;;;;-0.98;87.29;102020.66;106311;1270;22701;-57
2022/02/12 05:12:50;;;;;;;14.10;3.30;;;;;;;-0.99;87.40;102017.03;106360;1270;22773;-58
2022/02/12 05:15:19;;;;;;;11.90;2.30;;;;;;;-0.99;87.39;102020.94;106310;1271;22673;-56
2022/02/12 05:17:47;;;;;;;17.40;4.30;;;;;;;-0.99;87.33;102023.93;106439;1271;22752;-59
2022/02/12 05:20:16;;;;;;;20.90;2.60;;;;;;;-1.00;87.30;102025.09;106353;1270;22643;-59
2022/02/12 05:22:44;;;;;;;13.80;2.40;;;;;;;-1.00;87.19;102023.91;106474;1271;23034;-57
2022/02/12 05:25:12;;;;;;;11.30;1.70;;;;;;;-0.99;87.04;102028.06;106192;1271;22583;-55
2022/02/12 05:27:40;;;;;;;20.70;2.60;;;;;;;-0.99;87.04;102022.90;106227;1273;24191;-57
2022/02/12 05:30:12;;;;;;;16.40;2.30;;;;;;;-0.98;86.77;102023.02;106169;1273;23096;-60
2022/02/12 05:32:40;;;;;;;17.20;2.70;;;;;;;-0.98;86.59;102027.17;106045;1270;25601;-57
2022/02/12 05:35:09;;;;;;;13.70;2.40;;;;;;;-1.01;86.43;102027.50;105999;1270;22560;-57
2022/02/12 05:37:38;;;;;;;17.30;2.80;;;;;;;-1.04;86.37;102030.63;106264;1271;24307;-59
2022/02/12 05:40:10;;;;;;;14.90;2.50;;;;;;;-1.05;86.51;102029.89;106401;1271;24526;-61
2022/02/12 05:42:39;;;;;;;14.90;2.70;;;;;;;-1.07;86.54;102035.34;106420;1271;24254;-56
2022/02/12 05:45:09;;;;;;;14.00;3.10;;;;;;;-1.10;86.59;102032.69;106262;1273;22602;-57
2022/02/12 05:47:39;;;;;;;17.40;2.40;;;;;;;-1.13;86.66;102034.56;106386;1271;22583;-56
2022/02/12 05:50:10;;;;;;;15.10;3.10;;;;;;;-1.17;86.68;102033.45;106342;1270;22551;-58
2022/02/12 05:52:39;;;;;;;15.50;2.80;;;;;;;-1.21;86.69;102036.81;106481;1270;22719;-56
2022/02/12 05:55:09;;;;;;;26.70;3.30;;;;;;;-1.23;86.65;102038.25;106425;1271;25549;-60
2022/02/12 05:57:38;;;;;;;12.90;2.60;;;;;;;-1.24;86.60;102039.40;106267;1270;24263;-56
2022/02/12 06:00:09;;;;;;;19.50;4.60;;;;;;;-1.26;86.34;102047.73;106228;1271;22600;-58
2022/02/12 06:02:38;;;;;;;20.00;2.90;;;;;;;-1.28;86.38;102051.05;106247;1270;24153;-59
2022/02/12 06:05:08;;;;;;;21.30;3.50;;;;;;;-1.25;86.49;102053.08;106178;1271;22754;-56
2022/02/12 06:07:37;;;;;;;15.30;2.80;;;;;;;-1.23;86.42;102056.58;106360;1270;25387;-59
2022/02/12 06:10:06;;;;;;;15.40;2.50;;;;;;;-1.23;86.05;102057.66;106224;1270;24348;-60
2022/02/12 06:12:35;;;;;;;15.70;2.90;;;;;;;-1.23;86.02;102058.13;106586;1271;22601;-57
2022/02/12 06:15:04;;;;;;;18.90;3.30;;;;;;;-1.24;85.82;102061.80;106234;1271;22721;-54
2022/02/12 06:17:33;;;;;;;12.60;2.10;;;;;;;-1.26;85.67;102065.17;106265;1273;23844;-61
2022/02/12 06:20:02;;;;;;;15.70;2.90;;;;;;;-1.28;85.79;102068.42;106137;1271;25516;-57
2022/02/12 06:22:30;;;;;;;15.50;2.50;;;;;;;-1.27;85.94;102073.61;106332;1271;25695;-57
2022/02/12 06:24:59;;;;;;;11.60;2.70;;;;;;;-1.27;85.52;102073.13;106074;1270;22624;-57
2022/02/12 06:27:27;;;;;;;20.70;3.60;;;;;;;-1.31;85.43;102074.15;106404;1271;22893;-59
2022/02/12 06:29:56;;;;;;;16.20;2.70;;;;;;;-1.32;85.46;102079.36;106050;1268;22703;-58
2022/02/12 06:32:25;;;;;;;17.90;4.30;;;;;;;-1.33;85.47;102084.98;106150;1273;24360;-56
2022/02/12 06:34:56;;;;;;;13.80;2.60;;;;;;;-1.35;85.49;102090.33;106272;1270;22705;-60
2022/02/12 06:37:24;;;;;;;18.80;3.50;;;;;;;-1.39;85.12;102090.46;106448;1270;22594;-57
2022/02/12 06:39:53;;;;;;;16.80;3.50;;;;;;;-1.44;85.32;102090.83;106102;1274;22592;-58
2022/02/12 06:42:22;;;;;;;22.90;4.20;;;;;;;-1.47;85.35;102091.59;106104;1273;26189;-56
2022/02/12 06:44:50;;;;;;;16.50;4.70;;;;;;;-1.51;85.51;102095.55;106206;1271;24275;-58
2022/02/12 06:47:19;;;;;;;24.20;5.50;;;;;;;-1.52;85.60;102098.34;106086;1271;22857;-60
2022/02/12 06:49:49;;;;;;;19.30;4.90;;;;;;;-1.51;85.69;102104.54;106055;1271;22626;-56
2022/02/12 06:52:17;;;;;;;20.10;3.50;;;;;;;-1.53;85.66;102105.98;106088;1273;22573;-59
2022/02/12 06:54:46;;;;;;;19.00;3.80;;;;;;;-1.53;85.83;102106.70;106200;1273;22571;-55
2022/02/12 06:57:15;;;;;;;22.20;3.80;;;;;;;-1.53;85.89;102115.77;105875;1271;25279;-58
2022/02/12 06:59:43;;;;;;;22.90;6.20;;;;;;;-1.52;86.06;102119.78;105630;1273;24230;-59
2022/02/12 07:02:11;;;;;;;20.10;3.80;;;;;;;-1.48;86.04;102130.52;105928;1273;22570;-59
2022/02/12 07:04:40;;;;;;;15.20;3.80;;;;;;;-1.48;85.93;102136.30;105955;1274;22733;-64
2022/02/12 07:07:09;;;;;;;23.30;4.90;;;;;;;-1.48;85.92;102140.34;105811;1271;22684;-62
2022/02/12 07:09:37;;;;;;;29.00;5.90;;;;;;;-1.47;85.80;102139.00;106095;1271;24350;-62
2022/02/12 07:12:08;;;;;;;19.00;6.00;;;;;;;-1.48;85.85;102145.48;105875;1273;22576;-61
2022/02/12 07:14:38;;;;;;;20.80;5.60;;;;;;;-1.46;85.95;102145.92;107103;1273;22907;-60
2022/02/12 07:17:06;;;;;;;21.90;6.50;;;;;;;-1.45;86.00;102153.38;105911;1273;22702;-60
2022/02/12 07:19:37;;;;;;;22.90;6.20;;;;;;;-1.45;86.12;102162.39;105968;1273;24722;-59
2022/02/12 07:22:06;;;;;;;26.70;7.40;;;;;;;-1.44;86.30;102162.02;106042;1270;25391;-60
2022/02/12 07:24:35;;;;;;;27.80;6.70;;;;;;;-1.43;86.40;102160.71;105603;1271;23364;-58
2022/02/12 07:27:04;;;;;;;24.50;7.10;;;;;;;-1.41;86.54;102163.90;108470;1272;25607;-58
2022/02/12 07:29:33;;;;;;;19.00;4.80;;;;;;;-1.39;86.70;102167.23;105912;1272;22555;-59
2022/02/12 07:32:01;;;;;;;17.40;4.60;;;;;;;-1.37;86.86;102165.80;105454;1273;22573;-55
2022/02/12 07:34:30;;;;;;;23.30;5.70;;;;;;;-1.35;86.77;102166.48;105511;1273;25540;-55
2022/02/12 07:36:58;;;;;;;24.40;5.50;;;;;;;-1.32;86.73;102170.77;105746;1273;22610;-56
2022/02/12 07:39:27;;;;;;;26.10;6.60;;;;;;;-1.32;86.91;102179.95;105473;1273;22633;-52
2022/02/12 07:41:55;;;;;;;20.40;4.90;;;;;;;-1.30;86.91;102173.20;105580;1273;24305;-54
2022/02/12 07:44:24;;;;;;;23.70;4.30;;;;;;;-1.28;87.11;102177.55;105841;1273;28055;-55
2022/02/12 07:46:52;;;;;;;22.00;3.80;;;;;;;-1.26;87.35;102180.67;105513;1273;22753;-55
2022/02/12 07:49:21;;;;;;;24.70;4.90;;;;;;;-1.22;87.51;102186.70;105517;1273;22630;-54
2022/02/12 07:51:49;;;;;;;22.10;4.80;;;;;;;-1.19;87.41;102190.30;105520;1271;22666;-54
2022/02/12 07:54:18;;;;;;;18.50;4.60;;;;;;;-1.16;87.38;102195.64;105478;1272;22708;-53
2022/02/12 07:56:46;;;;;;;21.60;4.60;;;;;;;-1.12;87.75;102194.89;105497;1271;22548;-55
2022/02/12 07:59:14;;;;;;;23.80;5.80;;;;;;;-1.08;87.72;102189.50;105637;1271;22718;-57
2022/02/12 08:01:43;;;;;;;20.70;5.40;;;;;;;-1.04;87.97;102187.50;105430;1273;22904;-57
2022/02/12 08:04:11;;;;;;;17.90;5.20;;;;;;;-1.02;87.86;102183.41;105595;1271;24427;-56
2022/02/12 08:09:23;;;;;;;27.50;6.40;;;;;;;-0.93;88.02;102188.25;105259;1276;25580;-57
2022/02/12 08:12:13;;;;;;;27.20;7.40;;;;;;;-0.91;87.95;102184.63;105308;1276;22591;-57
2022/02/12 08:14:41;;;;;;;23.50;7.40;;;;;;;-0.86;87.95;102183.95;105283;1276;22730;-58
2022/02/12 08:17:10;;;;;;;29.20;8.10;;;;;;;-0.83;88.07;102188.27;105321;1276;22543;-56
2022/02/12 08:19:40;;;;;;;26.10;8.30;;;;;;;-0.78;88.09;102189.48;105202;1276;23013;-58
2022/02/12 08:22:10;;;;;;;28.10;7.50;;;;;;;-0.73;88.12;102191.39;105397;1276;22643;-58
2022/02/12 08:24:39;;;;;;;28.40;7.80;;;;;;;-0.69;88.11;102195.50;105464;1276;22619;-57
2022/02/12 08:27:09;;;;;;;28.60;6.90;;;;;;;-0.65;88.19;102197.54;105265;1276;25576;-56
2022/02/12 08:29:39;;;;;;;22.70;6.40;;;;;;;-0.59;88.41;102198.25;105401;1276;22722;-57
2022/02/12 08:32:09;;;;;;;24.80;7.80;;;;;;;-0.52;88.46;102196.91;105467;1276;24335;-56
2022/02/12 08:34:40;;;;;;;27.20;6.20;;;;;;;-0.46;88.37;102197.38;105402;1276;25388;-58
2022/02/12 08:37:09;;;;;;;24.80;6.10;;;;;;;-0.42;88.33;102203.73;105618;1276;22598;-57
2022/02/12 08:39:38;;;;;;;19.50;5.80;;;;;;;-0.38;88.34;102210.41;105444;1276;22541;-57
2022/02/12 08:42:08;;;;;;;22.90;5.80;;;;;;;-0.33;88.15;102208.73;105376;1276;22550;-54
2022/02/12 08:44:38;;;;;;;26.00;6.90;;;;;;;-0.29;88.21;102206.30;105286;1276;22548;-54
2022/02/12 08:47:09;;;;;;;20.00;5.70;;;;;;;-0.24;88.36;102207.67;105588;1273;22560;-54
2022/02/12 08:49:38;;;;;;;19.90;5.50;;;;;;;-0.16;88.32;102207.54;105777;1273;23209;-56
2022/02/12 08:52:08;;;;;;;19.00;4.00;;;;;;;-0.11;88.26;102212.99;105648;1270;22535;-55
2022/02/12 08:54:37;;;;;;;19.90;4.90;;;;;;;-0.06;88.23;102212.23;105638;1271;25261;-57
2022/02/12 08:57:06;;;;;;;21.80;5.30;;;;;;;-0.00;88.14;102215.17;105710;1270;26780;-56
2022/02/12 08:59:35;;;;;;;20.50;4.00;;;;;;;0.06;88.09;102217.28;105784;1270;22703;-57
2022/02/12 09:02:04;;;;;;;22.00;4.30;;;;;;;0.13;88.15;102213.57;105845;1273;25691;-55
2022/02/12 09:04:34;;;;;;;19.10;4.30;;;;;;;0.18;87.99;102217.92;105811;1272;22711;-57
2022/02/12 09:07:03;;;;;;;16.30;3.40;;;;;;;0.21;87.73;102215.02;105687;1273;24483;-54
2022/02/12 09:09:32;;;;;;;12.00;2.90;;;;;;;0.25;87.72;102218.23;105742;1270;23068;-56
2022/02/12 09:12:01;;;;;;;22.00;4.60;;;;;;;0.31;87.55;102220.55;105896;1270;22661;-55
2022/02/12 09:14:30;;;;;;;18.00;3.50;;;;;;;0.34;87.50;102217.85;105728;1271;22719;-57
2022/02/12 09:16:59;;;;;;;23.00;4.20;;;;;;;0.38;87.33;102214.09;105455;1270;22674;-57
2022/02/12 09:19:28;;;;;;;16.80;4.60;;;;;;;0.42;87.12;102213.15;105560;1270;22577;-57
2022/02/12 09:21:56;;;;;;;24.10;4.10;;;;;;;0.46;87.06;102218.26;105721;1271;22558;-56
2022/02/12 09:24:24;;;;;;;15.30;3.70;;;;;;;0.50;87.10;102218.27;105518;1270;25544;-56
2022/02/12 09:26:53;;;;;;;20.90;4.10;;;;;;;0.55;87.03;102220.34;105416;1273;22558;-58
2022/02/12 09:29:22;;;;;;;18.20;4.20;;;;;;;0.59;86.82;102225.34;105436;1273;22541;-59
2022/02/12 09:31:51;;;;;;;14.90;2.80;;;;;;;0.63;86.81;102226.36;105238;1271;546031;-57
2022/02/12 09:34:19;;;;;;;23.30;4.30;;;;;;;0.68;86.71;102227.33;105733;1273;22544;-57
2022/02/12 09:36:48;;;;;;;26.70;5.40;;;;;;;0.74;86.57;102230.52;105502;1273;25583;-58
2022/02/12 09:39:18;;;;;;;21.60;3.50;;;;;;;0.80;86.67;102230.14;106000;1271;22567;-58
2022/02/12 09:41:46;;;;;;;19.00;3.70;;;;;;;0.88;86.54;102225.81;105754;1273;23306;-58
2022/02/12 09:44:15;;;;;;;13.00;2.60;;;;;;;0.95;86.48;102225.86;105501;1270;22773;-57
2022/02/12 09:46:58;;;;;;;20.80;3.40;;;;;;;1.01;86.39;102226.52;105476;1273;22633;-58
2022/02/12 09:49:27;;;;;;;13.30;3.40;;;;;;;1.08;86.30;102233.34;105597;1271;22655;-59
2022/02/12 09:51:56;;;;;;;14.40;3.30;;;;;;;1.14;86.12;102236.89;105486;1273;25395;-58
2022/02/12 09:54:25;;;;;;;20.80;3.00;;;;;;;1.20;86.03;102236.43;105797;1273;22642;-58
2022/02/12 09:56:54;;;;;;;14.00;3.00;;;;;;;1.26;85.81;102230.41;105642;1270;22534;-57
2022/02/12 09:59:22;;;;;;;11.50;2.20;;;;;;;1.32;85.87;102230.43;106084;1271;22698;-57
2022/02/12 10:01:51;;;;;;;15.40;3.10;;;;;;;1.39;85.85;102237.23;105641;1271;25801;-55
2022/02/12 10:04:21;;;;;;;20.70;3.60;;;;;;;1.48;86.05;102234.54;105650;1270;22575;-56
2022/02/12 10:06:49;;;;;;;17.40;2.40;;;;;;;1.57;85.80;102233.84;105867;1273;24023;-56
2022/02/12 10:09:18;;;;;;;16.00;3.00;;;;;;;1.64;85.34;102232.28;106200;1273;22546;-57
2022/02/12 10:11:48;;;;;;;10.70;2.00;;;;;;;1.70;85.08;102230.81;105834;1273;22695;-56
2022/02/12 10:14:19;;;;;;;13.60;1.80;;;;;;;1.78;84.61;102230.53;105534;1273;25309;-56
2022/02/12 10:16:53;;;;;;;;;;;;;;;1.84;84.45;102225.43;105584;1273;22614;-62
2022/02/12 10:19:32;;;;;;;11.40;1.70;;;;;;;1.91;84.89;102230.02;105646;1273;22866;-62
2022/02/12 10:22:13;;;;;;;10.80;1.30;;;;;;;2.00;85.14;102224.55;105721;1270;22564;-62
2022/02/12 10:24:53;;;;;;;15.10;1.90;;;;;;;2.11;84.67;102216.74;105587;1273;22560;-61
2022/02/12 10:27:24;;;;;;;7.90;1.40;;;;;;;2.19;84.35;102208.73;105629;1270;22619;-61
2022/02/12 10:29:55;;;;;;;14.60;1.70;;;;;;;2.25;84.03;102207.17;105582;1273;22530;-61
2022/02/12 10:32:25;;;;;;;14.40;1.30;;;;;;;2.31;84.07;102205.67;105772;1271;24366;-57
2022/02/12 10:34:56;;;;;;;14.90;1.40;;;;;;;2.37;83.37;102200.23;105655;1270;22538;-59
2022/02/12 10:37:26;;;;;;;7.50;1.20;;;;;;;2.41;83.40;102199.10;105535;1273;22648;-57
2022/02/12 10:39:57;;;;;;;8.30;1.40;;;;;;;2.46;83.08;102202.06;105823;1271;22574;-58
2022/02/12 10:42:27;;;;;;;11.90;1.50;;;;;;;2.50;83.00;102204.31;106296;1271;22570;-57
2022/02/12 10:44:57;;;;;;;10.50;1.20;;;;;;;2.54;82.56;102200.41;105996;1270;22629;-58
2022/02/12 10:47:25;;;;;;;8.40;0.90;;;;;;;2.56;82.15;102196.11;105672;1271;22643;-58
2022/02/12 10:49:55;;;;;;;7.80;1.00;;;;;;;2.59;81.79;102195.45;105499;1273;26464;-58
2022/02/12 10:52:38;;;;;;;14.80;1.10;;;;;;;2.58;81.68;102190.53;105758;1273;22717;-57
2022/02/12 10:55:21;;;;;;;11.80;0.90;;;;;;;2.55;81.36;102185.92;105608;1273;22554;-58
2022/02/12 10:57:51;;;;;;;7.50;1.10;;;;;;;2.51;81.19;102186.52;105788;1273;22557;-57
2022/02/12 11:00:20;;;;;;;8.40;1.20;;;;;;;2.47;81.32;102182.14;105592;1273;22629;-57
2022/02/12 11:02:49;;;;;;;7.70;1.00;;;;;;;2.46;81.43;102173.86;105634;1273;23976;-59
2022/02/12 11:05:20;;;;;;;14.10;0.90;;;;;;;2.47;80.64;102173.56;105555;1271;22550;-57
2022/02/12 11:07:50;;;;;;;13.40;1.70;;;;;;;2.46;81.06;102169.77;105428;1271;22727;-58
2022/02/12 11:10:20;;;;;;;11.00;1.00;;;;;;;2.44;80.54;102166.44;105444;1271;23055;-58
2022/02/12 11:12:50;;;;;;;7.10;0.90;;;;;;;2.47;80.57;102163.95;105551;1273;22610;-58
2022/02/12 11:15:18;;;;;;;9.70;1.10;;;;;;;2.51;79.90;102163.92;105433;1271;22543;-58
2022/02/12 11:17:48;;;;;;;9.00;1.50;;;;;;;2.53;79.32;102153.30;105553;1273;24275;-59
2022/02/12 11:20:20;;;;;;;7.40;0.90;;;;;;;2.52;79.10;102154.95;105523;1273;26588;-58
2022/02/12 11:22:55;;;;;;;10.70;1.10;;;;;;;2.53;79.20;102157.16;106217;1273;22536;-58
2022/02/12 11:25:37;;;;;;;11.80;1.20;;;;;;;2.53;78.74;102157.63;105439;1273;25500;-59
2022/02/12 11:28:08;;;;;;;14.60;1.60;;;;;;;2.52;79.18;102151.64;105350;1271;24495;-59
2022/02/12 11:30:38;;;;;;;21.30;3.10;;;;;;;2.57;79.34;102150.35;105734;1273;22626;-58
2022/02/12 11:33:19;;;;;;;20.60;2.20;;;;;;;2.61;79.22;102147.16;105728;1273;26001;-58